createdAt,value
2022-12-31T00:00:49.844Z,9.50
2022-12-31T00:03:18.121Z,9.90
2022-12-31T00:05:47.514Z,9.07
2022-12-31T00:08:15.487Z,10.10
2022-12-31T00:10:43.668Z,10.90
2022-12-31T00:13:13.640Z,9.20
2022-12-31T00:15:43.026Z,10.13
2022-12-31T00:18:12.522Z,12.33
2022-12-31T00:20:41.862Z,10.07
2022-12-31T00:23:12.387Z,10.03
2022-12-31T00:25:42.729Z,19.40
2022-12-31T00:28:10.416Z,9.80
2022-12-31T00:30:39.075Z,9.17
2022-12-31T00:33:06.752Z,9.23
2022-12-31T00:35:36.570Z,9.87
2022-12-31T00:38:05.420Z,10.37
2022-12-31T00:40:34.722Z,9.00
2022-12-31T00:43:04.954Z,9.90
2022-12-31T00:45:33.346Z,13.43
2022-12-31T00:48:02.150Z,9.37
2022-12-31T00:50:29.907Z,8.77
2022-12-31T00:52:58.835Z,9.63
2022-12-31T00:55:27.020Z,9.37
2022-12-31T00:57:57.080Z,8.80
2022-12-31T01:00:25.305Z,10.43
2022-12-31T01:02:53.904Z,9.03
2022-12-31T01:05:22.706Z,8.20
2022-12-31T01:07:51.246Z,9.07
2022-12-31T01:10:39.313Z,8.87
2022-12-31T01:13:09.271Z,8.40
2022-12-31T01:15:38.776Z,7.90
2022-12-31T01:18:08.323Z,6.70
2022-12-31T01:20:38.365Z,7.33
2022-12-31T01:23:06.682Z,7.50
2022-12-31T01:25:36.530Z,9.53
2022-12-31T01:28:05.006Z,9.80
2022-12-31T01:30:34.029Z,7.00
2022-12-31T01:33:02.423Z,7.07
2022-12-31T01:35:30.137Z,7.10
2022-12-31T01:37:58.461Z,7.07
2022-12-31T01:40:26.434Z,5.70
2022-12-31T01:42:56.805Z,6.63
2022-12-31T01:45:25.750Z,7.13
2022-12-31T01:47:57.359Z,7.40
2022-12-31T01:50:29.121Z,8.10
2022-12-31T01:53:00.330Z,7.13
2022-12-31T01:55:31.027Z,6.53
2022-12-31T01:58:01.036Z,9.50
2022-12-31T02:00:28.828Z,9.93
2022-12-31T02:02:59.366Z,8.23
2022-12-31T02:05:32.035Z,7.43
2022-12-31T02:08:00.941Z,7.43
2022-12-31T02:10:29.224Z,8.80
2022-12-31T02:12:56.946Z,8.03
2022-12-31T02:15:31.211Z,8.90
2022-12-31T02:18:05.832Z,7.60
2022-12-31T02:20:59.785Z,7.30
2022-12-31T02:24:10.066Z,12.63
2022-12-31T02:26:51.242Z,9.23
2022-12-31T02:29:52.132Z,8.20
2022-12-31T02:32:26.669Z,7.10
2022-12-31T02:34:58.829Z,8.43
2022-12-31T02:37:28.307Z,15.53
2022-12-31T02:39:56.383Z,9.23
2022-12-31T02:42:24.066Z,20.23
2022-12-31T02:44:51.731Z,8.00
2022-12-31T02:47:28.777Z,6.07
2022-12-31T02:50:08.854Z,10.90
2022-12-31T02:52:44.844Z,6.60
2022-12-31T02:55:17.687Z,7.10
2022-12-31T02:57:49.751Z,9.80
2022-12-31T03:00:36.449Z,6.80
2022-12-31T03:03:07.046Z,7.60
2022-12-31T03:05:36.120Z,7.73
2022-12-31T03:08:03.780Z,8.63
2022-12-31T03:10:31.464Z,7.23
2022-12-31T03:12:58.421Z,6.73
2022-12-31T03:15:28.305Z,5.60
2022-12-31T03:17:58.941Z,7.50
2022-12-31T03:20:49.050Z,6.50
2022-12-31T03:23:20.010Z,5.93
2022-12-31T03:25:46.944Z,5.33
2022-12-31T03:28:16.253Z,5.93
2022-12-31T03:30:46.844Z,5.60
2022-12-31T03:33:14.602Z,13.00
2022-12-31T03:35:45.328Z,5.30
2022-12-31T03:38:14.127Z,5.80
2022-12-31T03:40:44.050Z,5.97
2022-12-31T03:43:12.062Z,9.63
2022-12-31T03:45:39.879Z,4.90
2022-12-31T03:48:09.185Z,4.57
2022-12-31T03:50:37.496Z,4.50
2022-12-31T03:53:06.823Z,5.40
2022-12-31T03:55:34.480Z,6.70
2022-12-31T03:58:02.106Z,6.43
2022-12-31T04:00:30.058Z,4.77
2022-12-31T04:02:58.232Z,7.00
2022-12-31T04:05:26.173Z,6.40
2022-12-31T04:07:55.645Z,5.03
2022-12-31T04:10:24.624Z,5.80
2022-12-31T04:12:52.315Z,7.93
2022-12-31T04:15:21.491Z,6.53
2022-12-31T04:17:49.810Z,6.20
2022-12-31T04:20:17.992Z,7.93
2022-12-31T04:22:45.894Z,7.73
2022-12-31T04:25:13.560Z,8.03
2022-12-31T04:27:44.445Z,7.50
2022-12-31T04:30:13.839Z,8.13
2022-12-31T04:32:41.693Z,10.60
2022-12-31T04:35:10.470Z,8.40
2022-12-31T04:37:38.206Z,9.00
2022-12-31T04:40:07.084Z,8.10
2022-12-31T04:42:35.022Z,8.33
2022-12-31T04:45:04.224Z,10.13
2022-12-31T04:47:31.872Z,8.50
2022-12-31T04:49:59.466Z,10.70
2022-12-31T04:52:27.108Z,9.13
2022-12-31T04:54:54.725Z,7.33
2022-12-31T04:57:22.324Z,9.50
2022-12-31T04:59:50.121Z,8.40
2022-12-31T05:02:19.307Z,7.17
2022-12-31T05:04:47.072Z,5.70
2022-12-31T05:07:15.269Z,7.43
2022-12-31T05:09:42.816Z,7.10
2022-12-31T05:12:10.437Z,6.03
2022-12-31T05:14:38.117Z,6.13
2022-12-31T05:17:05.799Z,7.00
2022-12-31T05:19:34.745Z,5.90
2022-12-31T05:22:20.067Z,6.30
2022-12-31T05:24:47.643Z,5.77
2022-12-31T05:27:15.696Z,5.50
2022-12-31T05:29:43.333Z,4.73
2022-12-31T05:32:10.979Z,5.20
2022-12-31T05:34:40.044Z,4.80
2022-12-31T05:37:07.766Z,5.70
2022-12-31T05:39:36.994Z,3.53
2022-12-31T05:42:04.879Z,3.90
2022-12-31T05:44:32.490Z,3.27
2022-12-31T05:47:00.081Z,5.17
2022-12-31T05:49:28.439Z,4.00
2022-12-31T05:51:57.921Z,4.83
2022-12-31T05:54:25.747Z,4.93
2022-12-31T05:56:53.369Z,4.23
2022-12-31T05:59:21.677Z,4.90
2022-12-31T06:01:49.438Z,3.33
2022-12-31T06:04:17.270Z,5.43
2022-12-31T06:06:47.987Z,5.13
2022-12-31T06:09:17.804Z,6.57
2022-12-31T06:11:45.859Z,3.73
2022-12-31T06:14:14.004Z,4.00
2022-12-31T06:16:42.636Z,5.93
2022-12-31T06:19:10.824Z,5.43
2022-12-31T06:21:39.237Z,9.40
2022-12-31T06:24:15.231Z,3.33
2022-12-31T06:26:49.496Z,2.40
2022-12-31T06:29:33.993Z,3.77
2022-12-31T06:32:02.397Z,9.10
2022-12-31T06:34:31.531Z,3.53
2022-12-31T06:36:59.408Z,2.30
2022-12-31T06:39:27.381Z,1.83
2022-12-31T06:41:56.398Z,1.77
2022-12-31T06:44:23.993Z,1.50
2022-12-31T06:46:54.343Z,1.80
2022-12-31T06:49:21.916Z,1.90
2022-12-31T06:51:49.442Z,2.57
2022-12-31T06:54:16.977Z,1.57
2022-12-31T06:56:45.913Z,1.40
2022-12-31T06:59:37.169Z,2.33
2022-12-31T07:02:47.322Z,4.73
2022-12-31T07:05:46.617Z,1.60
2022-12-31T07:08:23.130Z,2.33
2022-12-31T07:10:55.345Z,3.60
2022-12-31T07:13:42.474Z,3.43
2022-12-31T07:16:42.077Z,2.70
2022-12-31T07:19:30.240Z,1.43
2022-12-31T07:21:59.583Z,1.90
2022-12-31T07:24:28.307Z,1.83
2022-12-31T07:27:05.276Z,1.50
2022-12-31T07:29:44.443Z,1.60
2022-12-31T07:32:24.361Z,1.40
2022-12-31T07:34:59.340Z,1.43
2022-12-31T07:37:32.692Z,2.20
2022-12-31T07:40:07.409Z,1.77
2022-12-31T07:42:40.412Z,2.03
2022-12-31T07:45:14.010Z,1.93
2022-12-31T07:47:43.556Z,3.70
2022-12-31T07:50:15.547Z,1.50
2022-12-31T07:52:43.558Z,2.80
2022-12-31T07:55:11.722Z,1.90
2022-12-31T07:57:43.577Z,1.60
2022-12-31T08:00:14.772Z,2.20
2022-12-31T08:03:06.688Z,1.83
2022-12-31T08:05:41.689Z,2.17
2022-12-31T08:08:19.523Z,2.80
2022-12-31T08:11:01.044Z,1.83
2022-12-31T08:13:28.935Z,2.40
2022-12-31T08:15:57.035Z,1.93
2022-12-31T08:18:26.597Z,2.07
2022-12-31T08:21:06.381Z,2.20
2022-12-31T08:23:38.618Z,1.97
2022-12-31T08:26:16.863Z,1.70
2022-12-31T08:28:54.961Z,2.63
2022-12-31T08:31:27.170Z,2.40
2022-12-31T08:34:03.866Z,2.70
2022-12-31T08:36:42.338Z,2.50
2022-12-31T08:39:18.381Z,3.10
2022-12-31T08:41:52.740Z,2.57
2022-12-31T08:44:26.661Z,2.07
2022-12-31T08:46:57.360Z,3.13
2022-12-31T08:49:27.550Z,2.90
2022-12-31T08:51:55.836Z,2.83
2022-12-31T08:54:24.101Z,8.23
2022-12-31T08:56:56.994Z,2.93
2022-12-31T08:59:34.568Z,2.73
2022-12-31T09:02:26.630Z,2.73
2022-12-31T09:05:02.601Z,3.10
2022-12-31T09:07:34.049Z,3.13
2022-12-31T09:10:05.620Z,6.50
2022-12-31T09:12:37.137Z,5.60
2022-12-31T09:15:08.003Z,3.30
2022-12-31T09:17:46.429Z,3.00
2022-12-31T09:20:19.097Z,2.67
2022-12-31T09:22:47.179Z,3.40
2022-12-31T09:25:16.742Z,2.80
2022-12-31T09:27:51.879Z,3.67
2022-12-31T09:30:20.028Z,4.50
2022-12-31T09:32:58.571Z,3.30
2022-12-31T09:35:36.117Z,4.80
2022-12-31T09:38:11.278Z,5.07
2022-12-31T09:41:01.370Z,4.90
2022-12-31T09:44:13.673Z,6.00
2022-12-31T09:47:26.342Z,5.50
2022-12-31T09:50:20.066Z,6.37
2022-12-31T09:53:07.068Z,6.07
2022-12-31T09:55:39.051Z,6.50
2022-12-31T09:58:18.951Z,3.70
2022-12-31T10:00:52.853Z,7.40
2022-12-31T10:03:40.889Z,7.77
2022-12-31T10:06:23.111Z,5.63
2022-12-31T10:09:04.360Z,5.83
2022-12-31T10:11:41.903Z,3.97
2022-12-31T10:14:27.118Z,4.03
2022-12-31T10:17:03.248Z,5.30
2022-12-31T10:19:52.859Z,4.37
2022-12-31T10:22:43.044Z,4.73
2022-12-31T10:25:38.688Z,3.63
2022-12-31T10:28:16.392Z,3.60
2022-12-31T10:30:50.337Z,3.57
2022-12-31T10:33:22.791Z,3.20
2022-12-31T10:35:54.883Z,3.23
2022-12-31T10:38:31.651Z,4.57
2022-12-31T10:41:24.042Z,4.07
2022-12-31T10:44:09.760Z,4.67
2022-12-31T10:47:19.608Z,8.50
2022-12-31T10:50:29.589Z,5.10
2022-12-31T10:53:12.249Z,3.40
2022-12-31T10:56:01.998Z,2.73
2022-12-31T10:58:55.915Z,2.70
2022-12-31T11:01:33.678Z,3.77
2022-12-31T11:04:30.996Z,2.23
2022-12-31T11:07:22.369Z,3.20
2022-12-31T11:10:09.702Z,2.83
2022-12-31T11:13:03.389Z,2.10
2022-12-31T11:15:58.601Z,2.33
2022-12-31T11:18:32.739Z,2.50
2022-12-31T11:21:10.849Z,2.90
2022-12-31T11:23:47.373Z,3.23
2022-12-31T11:26:21.254Z,2.37
2022-12-31T11:29:05.474Z,2.17
2022-12-31T11:31:58.013Z,1.50
2022-12-31T11:34:44.338Z,1.90
2022-12-31T11:37:24.713Z,2.50
2022-12-31T11:40:02.511Z,3.30
2022-12-31T11:42:41.141Z,3.20
2022-12-31T11:45:15.728Z,2.53
2022-12-31T11:50:57.002Z,2.00
2022-12-31T11:53:41.243Z,2.03
2022-12-31T11:56:16.949Z,2.23
2022-12-31T11:58:48.144Z,1.60
2022-12-31T12:01:19.956Z,2.33
2022-12-31T12:03:49.048Z,2.33
2022-12-31T12:06:18.413Z,3.30
2022-12-31T12:08:46.644Z,2.07
2022-12-31T12:11:19.973Z,2.53
2022-12-31T12:13:47.839Z,2.40
2022-12-31T12:16:15.811Z,7.73
2022-12-31T12:18:45.584Z,2.80
2022-12-31T12:21:16.899Z,1.50
2022-12-31T12:23:55.593Z,1.87
2022-12-31T12:26:35.460Z,2.40
2022-12-31T12:29:11.002Z,2.23
2022-12-31T12:31:39.003Z,1.77
2022-12-31T12:34:07.243Z,2.63
2022-12-31T12:36:36.227Z,2.27
2022-12-31T12:39:05.523Z,2.13
2022-12-31T12:41:33.301Z,1.70
2022-12-31T12:44:06.344Z,4.60
2022-12-31T12:46:35.612Z,1.97
2022-12-31T12:49:04.201Z,1.97
2022-12-31T12:51:44.947Z,2.37
2022-12-31T12:54:20.711Z,3.83
2022-12-31T12:56:53.469Z,2.37
2022-12-31T12:59:47.039Z,1.80
2022-12-31T13:02:31.205Z,2.20
2022-12-31T13:05:13.212Z,3.70
2022-12-31T13:07:52.096Z,3.63
2022-12-31T13:10:39.372Z,2.13
2022-12-31T13:13:25.992Z,1.90
2022-12-31T13:15:58.664Z,2.10
2022-12-31T13:21:34.654Z,3.00
2022-12-31T13:24:11.017Z,2.10
2022-12-31T13:26:43.726Z,2.13
2022-12-31T13:29:17.021Z,2.90
2022-12-31T13:31:44.826Z,3.60
2022-12-31T13:34:15.639Z,4.00
2022-12-31T13:36:44.887Z,2.50
2022-12-31T13:39:18.556Z,3.33
2022-12-31T13:41:50.593Z,3.50
2022-12-31T13:44:28.290Z,2.37
2022-12-31T13:46:58.823Z,4.17
2022-12-31T13:49:31.516Z,2.10
2022-12-31T13:52:03.022Z,3.00
2022-12-31T13:54:37.748Z,4.60
2022-12-31T13:57:10.135Z,5.10
2022-12-31T13:59:39.713Z,2.17
2022-12-31T14:02:24.065Z,3.33
2022-12-31T14:04:54.120Z,3.20
2022-12-31T14:07:26.714Z,2.40
2022-12-31T14:10:00.387Z,3.80
2022-12-31T14:12:34.653Z,4.97
2022-12-31T14:15:09.333Z,4.37
2022-12-31T14:17:40.033Z,5.23
2022-12-31T14:20:18.156Z,3.27
2022-12-31T14:22:52.676Z,1.90
2022-12-31T14:25:26.765Z,3.10
2022-12-31T14:27:56.502Z,6.73
2022-12-31T14:30:26.590Z,3.33
2022-12-31T14:33:09.386Z,4.60
2022-12-31T14:35:47.619Z,4.93
2022-12-31T14:38:24.989Z,2.73
2022-12-31T14:41:05.935Z,4.50
2022-12-31T14:43:39.650Z,4.73
2022-12-31T14:46:14.251Z,5.73
2022-12-31T14:48:49.493Z,5.87
2022-12-31T14:51:17.136Z,6.33
2022-12-31T14:53:53.413Z,8.57
2022-12-31T14:56:41.898Z,7.10
2022-12-31T14:59:25.731Z,6.20
2022-12-31T15:01:53.692Z,3.30
2022-12-31T15:04:32.243Z,6.97
2022-12-31T15:07:06.557Z,4.30
2022-12-31T15:09:55.181Z,12.63
2022-12-31T15:12:40.160Z,3.00
2022-12-31T15:15:42.347Z,5.80
2022-12-31T15:18:30.068Z,6.43
2022-12-31T15:21:14.724Z,7.03
2022-12-31T15:23:43.772Z,4.83
2022-12-31T15:26:22.497Z,7.20
2022-12-31T15:28:59.701Z,19.30
2022-12-31T15:31:27.703Z,5.70
2022-12-31T15:33:59.038Z,6.90
2022-12-31T15:36:28.436Z,15.80
2022-12-31T15:39:25.665Z,11.43
2022-12-31T15:44:47.643Z,5.30
2022-12-31T15:47:18.100Z,3.83
2022-12-31T15:49:46.908Z,4.67
2022-12-31T15:52:16.041Z,10.90
2022-12-31T15:54:45.806Z,6.87
2022-12-31T15:57:17.757Z,4.57
2022-12-31T15:59:46.915Z,8.20
2022-12-31T16:02:21.059Z,10.13
2022-12-31T16:04:49.105Z,10.27
2022-12-31T16:07:17.131Z,9.60
2022-12-31T16:09:48.620Z,6.10
2022-12-31T16:12:20.099Z,11.57
2022-12-31T16:14:51.922Z,18.73
2022-12-31T16:17:26.672Z,15.40
2022-12-31T16:19:54.453Z,16.77
2022-12-31T16:22:26.523Z,10.90
2022-12-31T16:25:29.067Z,18.80
2022-12-31T16:27:43.118Z,43.37
2022-12-31T16:30:21.605Z,25.50
2022-12-31T16:32:50.873Z,20.07
2022-12-31T16:35:27.733Z,60.67
2022-12-31T16:38:03.597Z,20.67
2022-12-31T16:40:31.624Z,41.87
2022-12-31T16:42:59.327Z,11.90
2022-12-31T16:45:33.649Z,13.23
2022-12-31T16:48:16.394Z,18.10
2022-12-31T16:50:45.055Z,19.70
2022-12-31T16:53:17.439Z,23.93
2022-12-31T16:55:45.993Z,13.80
2022-12-31T16:58:19.231Z,17.10
2022-12-31T17:00:49.006Z,17.73
2022-12-31T17:03:20.075Z,12.67
2022-12-31T17:06:01.470Z,13.27
2022-12-31T17:08:31.322Z,28.70
2022-12-31T17:10:59.209Z,22.07
2022-12-31T17:13:31.946Z,25.83
2022-12-31T17:16:01.675Z,28.13
2022-12-31T17:18:35.941Z,22.40
2022-12-31T17:21:08.275Z,18.67
2022-12-31T17:23:37.793Z,22.00
2022-12-31T17:26:10.201Z,25.37
2022-12-31T17:28:42.830Z,28.67
2022-12-31T17:31:36.485Z,23.20
2022-12-31T17:34:20.337Z,19.53
2022-12-31T17:36:59.188Z,30.07
2022-12-31T17:39:28.141Z,26.93
2022-12-31T17:41:58.007Z,22.83
2022-12-31T17:44:28.353Z,42.70
2022-12-31T17:46:57.339Z,59.33
2022-12-31T17:49:28.552Z,31.80
2022-12-31T17:51:56.144Z,29.77
2022-12-31T17:54:23.720Z,22.90
2022-12-31T17:56:53.008Z,60.93
2022-12-31T17:59:23.376Z,29.93
2022-12-31T18:01:51.257Z,39.97
2022-12-31T18:04:21.442Z,44.20
2022-12-31T18:06:49.151Z,33.47
2022-12-31T18:09:16.995Z,28.93
2022-12-31T18:11:45.491Z,25.10
2022-12-31T18:14:15.308Z,38.50
2022-12-31T18:16:43.380Z,34.20
2022-12-31T18:19:37.747Z,28.43
2022-12-31T18:22:03.417Z,47.03
2022-12-31T18:24:31.133Z,42.67
2022-12-31T18:26:58.749Z,33.80
2022-12-31T18:29:26.523Z,25.93
2022-12-31T18:31:54.540Z,30.20
2022-12-31T18:34:22.340Z,37.23
2022-12-31T18:36:50.037Z,31.27
2022-12-31T18:39:19.299Z,22.47
2022-12-31T18:41:49.864Z,20.23
2022-12-31T18:44:18.365Z,14.93
2022-12-31T18:46:46.152Z,15.80
2022-12-31T18:49:13.844Z,25.73
2022-12-31T18:51:41.670Z,32.33
2022-12-31T18:54:12.053Z,31.67
2022-12-31T18:56:47.030Z,33.77
2022-12-31T18:59:16.310Z,35.43
2022-12-31T19:01:44.152Z,29.60
2022-12-31T19:04:14.235Z,36.93
2022-12-31T19:06:42.548Z,26.67
2022-12-31T19:09:30.922Z,19.63
2022-12-31T19:11:59.508Z,23.53
2022-12-31T19:14:28.797Z,38.27
2022-12-31T19:16:58.500Z,28.87
2022-12-31T19:19:29.956Z,21.10
2022-12-31T19:21:58.005Z,26.60
2022-12-31T19:24:27.428Z,29.83
2022-12-31T19:26:55.886Z,30.73
2022-12-31T19:29:26.587Z,22.63
2022-12-31T19:32:00.835Z,27.27
2022-12-31T19:34:29.121Z,23.90
2022-12-31T19:36:56.989Z,25.33
2022-12-31T19:39:27.235Z,17.10
2022-12-31T19:41:59.804Z,27.90
2022-12-31T19:44:30.694Z,18.23
2022-12-31T19:47:01.470Z,27.57
2022-12-31T19:49:32.177Z,23.80
2022-12-31T19:52:00.046Z,19.43
2022-12-31T19:54:27.999Z,14.20
2022-12-31T19:56:55.725Z,15.20
2022-12-31T19:59:23.539Z,16.20
2022-12-31T20:01:54.261Z,21.30
2022-12-31T20:04:22.374Z,15.20
2022-12-31T20:06:51.944Z,25.80
2022-12-31T20:09:19.622Z,29.40
2022-12-31T20:11:47.450Z,69.70
2022-12-31T20:14:15.469Z,26.13
2022-12-31T20:16:43.157Z,31.53
2022-12-31T20:19:12.383Z,19.93
2022-12-31T20:21:40.256Z,23.00
2022-12-31T20:24:10.191Z,20.80
2022-12-31T20:26:56.254Z,68.17
2022-12-31T20:29:23.892Z,33.73
2022-12-31T20:31:51.688Z,15.67
2022-12-31T20:34:20.721Z,14.10
2022-12-31T20:36:48.333Z,14.00
2022-12-31T20:39:15.892Z,12.93
2022-12-31T20:41:43.513Z,14.47
2022-12-31T20:44:11.093Z,14.63
2022-12-31T20:46:38.805Z,13.87
2022-12-31T20:49:06.966Z,13.43
2022-12-31T20:51:36.245Z,15.50
2022-12-31T20:54:06.026Z,11.13
2022-12-31T20:56:35.311Z,13.40
2022-12-31T20:59:03.345Z,14.87
2022-12-31T21:01:55.171Z,14.77
2022-12-31T21:04:18.865Z,11.13
2022-12-31T21:06:48.356Z,14.47
2022-12-31T21:09:16.073Z,11.53
2022-12-31T21:12:01.375Z,16.20
2022-12-31T21:14:28.982Z,17.90
2022-12-31T21:16:56.762Z,20.00
2022-12-31T21:19:24.362Z,14.93
2022-12-31T21:21:53.495Z,11.23
2022-12-31T21:24:24.116Z,17.13
2022-12-31T21:26:52.183Z,14.20
2022-12-31T21:29:19.765Z,16.00
2022-12-31T21:31:47.439Z,9.70
2022-12-31T21:34:15.072Z,16.87
2022-12-31T21:36:42.657Z,15.60
2022-12-31T21:39:11.600Z,8.30
2022-12-31T21:41:51.874Z,13.23
2022-12-31T21:44:20.737Z,10.30
2022-12-31T21:47:24.891Z,14.23
2022-12-31T21:49:36.371Z,12.00
2022-12-31T21:52:21.605Z,23.50
2022-12-31T21:55:08.113Z,12.57
2022-12-31T21:57:59.030Z,12.13
2022-12-31T22:00:43.281Z,13.23
2022-12-31T22:03:26.897Z,19.37
2022-12-31T22:05:56.109Z,11.73
2022-12-31T22:08:23.928Z,12.60
2022-12-31T22:10:53.244Z,11.90
2022-12-31T22:13:21.079Z,9.10
2022-12-31T22:15:49.978Z,10.33
2022-12-31T22:18:17.960Z,13.70
2022-12-31T22:20:45.540Z,10.10
2022-12-31T22:23:13.223Z,13.80
2022-12-31T22:25:40.962Z,8.87
2022-12-31T22:28:37.645Z,11.13
2022-12-31T22:30:57.968Z,13.30
2022-12-31T22:33:25.573Z,12.97
2022-12-31T22:36:00.956Z,14.53
2022-12-31T22:38:29.448Z,14.13
2022-12-31T22:41:05.383Z,17.83
2022-12-31T22:43:36.018Z,18.33
2022-12-31T22:46:08.890Z,9.10
2022-12-31T22:48:36.633Z,15.00
2022-12-31T22:51:04.684Z,16.93
2022-12-31T22:53:32.402Z,14.27
2022-12-31T22:56:00.102Z,20.17
2022-12-31T22:58:28.230Z,18.13
2022-12-31T23:00:57.242Z,44.60
2022-12-31T23:03:24.895Z,149.70
2022-12-31T23:05:53.048Z,92.77
2022-12-31T23:08:23.719Z,113.20
2022-12-31T23:11:05.361Z,130.00
2022-12-31T23:13:55.421Z,113.03
2022-12-31T23:16:43.408Z,77.67
2022-12-31T23:19:29.456Z,115.13
2022-12-31T23:22:14.868Z,100.47
2022-12-31T23:24:42.685Z,94.87
2022-12-31T23:27:11.240Z,104.00
2022-12-31T23:29:46.068Z,69.30
2022-12-31T23:32:16.592Z,65.00
2022-12-31T23:34:45.052Z,50.80
2022-12-31T23:37:13.210Z,90.60
2022-12-31T23:39:41.032Z,62.37
2022-12-31T23:42:08.792Z,53.73
2022-12-31T23:44:36.493Z,35.93
2022-12-31T23:47:04.220Z,36.83
2022-12-31T23:49:33.257Z,40.10
2022-12-31T23:52:01.042Z,39.50
2022-12-31T23:54:29.188Z,49.50
2022-12-31T23:56:56.824Z,40.30
2022-12-31T23:59:24.463Z,33.27
